createdAt,value
2022-09-15T00:03:40.895Z,3.28
2022-09-15T00:11:48.946Z,10.60
2022-09-15T00:19:54.397Z,3.88
2022-09-15T00:28:02.451Z,4.28
2022-09-15T00:36:10.358Z,4.45
2022-09-15T00:44:45.618Z,2.97
2022-09-15T00:52:57.322Z,3.85
2022-09-15T01:01:04.663Z,4.05
2022-09-15T01:09:18.520Z,4.72
2022-09-15T01:17:32.926Z,3.28
2022-09-15T01:26:05.658Z,5.55
2022-09-15T01:34:20.630Z,5.47
2022-09-15T01:42:28.429Z,4.85
2022-09-15T01:50:40.555Z,5.07
2022-09-15T01:58:46.034Z,4.32
2022-09-15T02:06:58.377Z,5.90
2022-09-15T02:15:08.805Z,4.97
2022-09-15T02:23:22.904Z,5.82
2022-09-15T02:31:30.174Z,6.82
2022-09-15T02:39:43.097Z,5.65
2022-09-15T02:47:49.666Z,8.32
2022-09-15T02:55:58.151Z,4.57
2022-09-15T03:04:04.804Z,9.40
2022-09-15T03:12:12.831Z,6.70
2022-09-15T03:20:22.674Z,6.03
2022-09-15T03:28:31.291Z,5.30
2022-09-15T03:36:36.877Z,4.20
2022-09-15T03:44:44.699Z,6.85
2022-09-15T03:52:49.978Z,4.10
2022-09-15T04:00:58.214Z,10.40
2022-09-15T04:09:03.563Z,5.15
2022-09-15T04:17:11.767Z,5.28
2022-09-15T04:25:17.201Z,9.27
2022-09-15T04:33:25.334Z,5.32
2022-09-15T04:41:31.392Z,8.32
2022-09-15T04:49:39.289Z,9.98
2022-09-15T04:57:44.580Z,4.40
2022-09-15T05:05:53.057Z,7.85
2022-09-15T05:13:58.285Z,5.53
2022-09-15T05:22:06.278Z,15.30
2022-09-15T05:38:41.791Z,14.40
2022-09-15T05:46:48.337Z,9.13
2022-09-15T05:54:59.189Z,12.15
2022-09-15T06:03:04.906Z,10.65
2022-09-15T06:11:15.717Z,8.27
2022-09-15T06:19:21.166Z,10.60
2022-09-15T06:27:29.287Z,16.52
2022-09-15T06:35:35.597Z,13.90
2022-09-15T06:43:43.764Z,10.40
2022-09-15T06:51:49.203Z,10.70
2022-09-15T06:59:57.090Z,10.15
2022-09-15T07:08:02.445Z,8.27
2022-09-15T07:16:12.830Z,8.55
2022-09-15T07:24:18.351Z,9.88
2022-09-15T07:32:26.307Z,11.82
2022-09-15T07:40:31.986Z,8.55
2022-09-15T07:48:39.918Z,6.93
2022-09-15T07:56:45.214Z,8.68
2022-09-15T08:04:53.270Z,11.27
2022-09-15T08:12:58.586Z,9.40
2022-09-15T08:21:07.794Z,10.85
2022-09-15T08:29:13.671Z,6.97
2022-09-15T08:37:22.289Z,6.07
2022-09-15T08:45:31.713Z,7.72
2022-09-15T08:53:46.104Z,6.60
2022-09-15T09:02:04.149Z,8.70
2022-09-15T09:10:18.369Z,8.18
2022-09-15T09:18:47.051Z,5.97
2022-09-15T09:26:58.655Z,11.48
2022-09-15T09:35:08.112Z,8.90
2022-09-15T09:43:16.097Z,9.00
2022-09-15T09:51:39.951Z,8.93
2022-09-15T09:59:49.537Z,7.60
2022-09-15T10:07:54.894Z,6.47
2022-09-15T10:16:05.236Z,12.35
2022-09-15T10:24:34.404Z,6.70
2022-09-15T10:32:43.405Z,7.50
2022-09-15T10:40:54.859Z,11.43
2022-09-15T10:49:16.392Z,8.45
2022-09-15T10:57:41.478Z,12.02
2022-09-15T11:06:04.158Z,7.70
2022-09-15T11:14:23.908Z,6.43
2022-09-15T11:22:37.607Z,4.93
2022-09-15T11:30:49.310Z,8.05
2022-09-15T11:39:02.582Z,9.93
2022-09-15T11:47:22.974Z,7.03
2022-09-15T11:55:37.346Z,6.03
2022-09-15T12:03:50.787Z,6.78
2022-09-15T12:12:04.554Z,5.68
2022-09-15T12:20:19.345Z,7.55
2022-09-15T12:28:42.577Z,5.93
2022-09-15T12:36:51.296Z,6.68
2022-09-15T12:45:01.152Z,5.82
2022-09-15T12:53:15.480Z,4.97
2022-09-15T13:01:53.758Z,7.38
2022-09-15T13:10:18.910Z,5.07
2022-09-15T13:18:28.167Z,7.10
2022-09-15T13:26:34.886Z,9.15
2022-09-15T13:35:22.611Z,9.95
2022-09-15T13:43:45.529Z,5.20
2022-09-15T13:52:02.485Z,5.85
2022-09-15T14:00:15.719Z,7.10
2022-09-15T14:08:30.433Z,10.75
2022-09-15T14:24:49.126Z,6.68
2022-09-15T14:32:57.139Z,12.50
2022-09-15T14:41:05.547Z,5.50
2022-09-15T14:49:14.678Z,9.20
2022-09-15T14:57:30.776Z,8.05
2022-09-15T15:05:40.806Z,6.75
2022-09-15T15:13:53.204Z,3.72
2022-09-15T15:30:48.552Z,11.10
2022-09-15T15:38:56.551Z,14.55
2022-09-15T15:47:25.722Z,6.20
2022-09-15T15:55:39.758Z,6.78
2022-09-15T16:03:47.752Z,7.60
2022-09-15T16:20:05.014Z,9.68
2022-09-15T16:28:10.318Z,10.27
2022-09-15T16:36:24.001Z,10.82
2022-09-15T16:44:29.361Z,11.63
2022-09-15T16:52:42.672Z,13.30
2022-09-15T17:00:49.418Z,11.45
2022-09-15T17:08:57.802Z,14.45
2022-09-15T17:17:03.333Z,15.77
2022-09-15T17:25:37.307Z,14.35
2022-09-15T17:33:43.159Z,16.08
2022-09-15T17:41:51.372Z,12.50
2022-09-15T17:49:56.919Z,12.88
2022-09-15T17:58:06.350Z,14.30
2022-09-15T18:06:13.483Z,17.67
2022-09-15T18:14:21.716Z,17.77
2022-09-15T18:22:29.780Z,14.07
2022-09-15T18:30:43.554Z,13.60
2022-09-15T18:38:48.953Z,17.98
2022-09-15T18:46:57.085Z,13.70
2022-09-15T18:55:02.494Z,17.85
2022-09-15T19:03:11.709Z,19.13
2022-09-15T19:11:17.443Z,14.10
2022-09-15T19:19:26.156Z,14.02
2022-09-15T19:27:33.564Z,18.55
2022-09-15T19:35:44.547Z,14.10
2022-09-15T19:43:49.861Z,15.18
2022-09-15T19:51:58.055Z,13.60
2022-09-15T20:00:03.410Z,14.25
2022-09-15T20:08:12.298Z,17.05
2022-09-15T20:16:19.884Z,19.02
2022-09-15T20:24:28.104Z,15.88
2022-09-15T20:32:34.646Z,18.38
2022-09-15T20:40:42.590Z,14.45
2022-09-15T20:48:48.742Z,13.88
2022-09-15T20:56:57.092Z,17.92
2022-09-15T21:05:02.357Z,19.95
2022-09-15T21:13:10.454Z,14.07
2022-09-15T21:21:17.389Z,12.48
2022-09-15T21:29:25.404Z,10.80
2022-09-15T21:37:32.145Z,9.65
2022-09-15T21:45:40.145Z,9.80
2022-09-15T21:53:46.155Z,8.93
2022-09-15T22:01:54.466Z,6.45
2022-09-15T22:09:59.738Z,7.32
2022-09-15T22:18:09.738Z,3.88
2022-09-15T22:26:18.159Z,4.32
2022-09-15T22:34:26.145Z,5.93
2022-09-15T22:42:31.508Z,4.38
2022-09-15T22:50:39.561Z,6.18
2022-09-15T22:58:46.657Z,6.53
2022-09-15T23:06:54.574Z,3.65
2022-09-15T23:15:04.021Z,4.63
2022-09-15T23:23:12.077Z,3.40
2022-09-15T23:31:18.203Z,3.22
2022-09-15T23:39:26.807Z,1.95
2022-09-15T23:47:32.153Z,5.95
2022-09-15T23:55:40.364Z,3.45
